Time;durP1;ratioP1;P1;durP2;ratioP2;P2;SDS_P1;SDS_P2;PMS_P1;PMS_P2;Temp;Humidity;BMP_temperature;BMP_pressure;BME280_temperature;BME280_humidity;BME280_pressure;Samples;Min_cycle;Max_cycle;Signal;HPM_P1;HPM_P2
2023/12/27 00:01:41;;;;;;;12.13;5.87;;;;;;;;;;2612601;54;20359;-75
2023/12/27 00:07:12;;;;;;;16.53;5.60;;;;;;;;;;2612695;54;20406;-75
2023/12/27 00:12:43;;;;;;;10.03;5.37;;;;;;;;;;2613514;54;20506;-75
2023/12/27 00:18:16;;;;;;;12.53;5.20;;;;;;;;;;2612800;54;20849;-74
2023/12/27 00:23:46;;;;;;;12.53;5.07;;;;;;;;;;2613311;54;20418;-75
2023/12/27 00:29:15;;;;;;;10.30;4.80;;;;;;;;;;2613413;54;20452;-75
2023/12/27 00:34:48;;;;;;;10.97;5.00;;;;;;;;;;2612872;54;20393;-76
2023/12/27 00:40:18;;;;;;;9.50;4.67;;;;;;;;;;2613793;46;20404;-75
2023/12/27 00:51:55;;;;;;;12.53;4.90;;;;;;;;;;2613109;54;20923;-76
2023/12/27 00:57:24;;;;;;;13.03;5.43;;;;;;;;;;2613172;54;20390;-76
2023/12/27 01:02:54;;;;;;;11.93;4.67;;;;;;;;;;2612580;54;20354;-75
2023/12/27 01:08:24;;;;;;;17.03;6.20;;;;;;;;;;2613118;54;20362;-75
2023/12/27 01:13:55;;;;;;;12.23;6.30;;;;;;;;;;2612529;54;20988;-76
2023/12/27 01:19:24;;;;;;;13.43;5.77;;;;;;;;;;2613468;54;20361;-78
2023/12/27 01:24:54;;;;;;;14.07;6.20;;;;;;;;;;2613122;54;20519;-77
2023/12/27 01:30:24;;;;;;;22.53;5.80;;;;;;;;;;2613024;54;20429;-75
2023/12/27 01:35:53;;;;;;;11.43;4.93;;;;;;;;;;2613173;54;20494;-75
2023/12/27 01:41:23;;;;;;;12.57;7.43;;;;;;;;;;2612895;54;20409;-75
2023/12/27 01:50:37;;;;;;;17.30;6.57;;;;;;;;;;2613030;54;20548;-75
2023/12/27 01:56:07;;;;;;;21.77;6.57;;;;;;;;;;2612749;54;21018;-75
2023/12/27 02:01:37;;;;;;;18.73;6.90;;;;;;;;;;2613182;54;20369;-81
2023/12/27 02:07:07;;;;;;;16.23;7.80;;;;;;;;;;2614095;54;20377;-74
2023/12/27 02:12:38;;;;;;;21.20;6.63;;;;;;;;;;2613132;54;20380;-75
2023/12/27 02:18:08;;;;;;;16.10;6.87;;;;;;;;;;2612483;54;20489;-74
2023/12/27 02:23:37;;;;;;;17.17;6.10;;;;;;;;;;2612423;54;20380;-76
2023/12/27 02:29:07;;;;;;;24.10;7.33;;;;;;;;;;2612894;54;20419;-77
2023/12/27 02:34:36;;;;;;;16.37;6.63;;;;;;;;;;2612185;54;20349;-74
2023/12/27 02:40:07;;;;;;;17.77;6.23;;;;;;;;;;2612724;54;20355;-76
2023/12/27 02:45:36;;;;;;;18.20;6.30;;;;;;;;;;2612358;54;20364;-75
2023/12/27 02:51:07;;;;;;;13.57;5.83;;;;;;;;;;2612690;54;20405;-76
2023/12/27 02:56:36;;;;;;;19.90;7.20;;;;;;;;;;2613124;54;20403;-74
2023/12/27 03:02:07;;;;;;;16.90;7.73;;;;;;;;;;2613134;54;20335;-75
2023/12/27 03:07:37;;;;;;;17.13;7.50;;;;;;;;;;2614279;54;20364;-76
2023/12/27 03:13:07;;;;;;;18.53;7.57;;;;;;;;;;2614593;39;20605;-80
2023/12/27 03:18:39;;;;;;;13.33;6.93;;;;;;;;;;2613599;54;20827;-82
2023/12/27 03:24:08;;;;;;;18.83;6.77;;;;;;;;;;2613584;54;20368;-80
2023/12/27 03:29:38;;;;;;;24.40;7.60;;;;;;;;;;2613581;54;20392;-81
2023/12/27 03:35:08;;;;;;;15.83;7.47;;;;;;;;;;2612786;39;20754;-80
2023/12/27 03:40:38;;;;;;;21.70;7.87;;;;;;;;;;2613459;54;21288;-81
2023/12/27 03:46:07;;;;;;;15.80;8.07;;;;;;;;;;2613161;54;20499;-80
2023/12/27 03:51:38;;;;;;;15.73;8.10;;;;;;;;;;2612796;54;20942;-80
2023/12/27 03:57:08;;;;;;;14.83;7.43;;;;;;;;;;2613240;54;20463;-80
2023/12/27 04:02:38;;;;;;;23.00;8.40;;;;;;;;;;2613119;39;20507;-80
2023/12/27 04:08:09;;;;;;;17.47;7.80;;;;;;;;;;2613529;54;20380;-80
2023/12/27 04:13:40;;;;;;;20.70;8.53;;;;;;;;;;2612800;54;20368;-78
2023/12/27 04:19:09;;;;;;;19.93;6.90;;;;;;;;;;2613572;54;20392;-81
2023/12/27 04:24:39;;;;;;;21.90;8.23;;;;;;;;;;2612676;54;20533;-79
2023/12/27 04:30:09;;;;;;;16.07;7.47;;;;;;;;;;2613243;54;20979;-79
2023/12/27 04:35:39;;;;;;;13.43;7.57;;;;;;;;;;2612295;54;20400;-80
2023/12/27 04:41:09;;;;;;;19.23;7.90;;;;;;;;;;2613095;54;20360;-81
2023/12/27 04:52:45;;;;;;;14.80;7.30;;;;;;;;;;2613257;54;20352;-79
2023/12/27 04:58:15;;;;;;;16.30;7.50;;;;;;;;;;2612463;54;20382;-79
2023/12/27 05:03:45;;;;;;;23.63;7.60;;;;;;;;;;2612744;54;20393;-81
2023/12/27 05:09:16;;;;;;;16.47;8.37;;;;;;;;;;2612359;54;20355;-77
2023/12/27 05:14:46;;;;;;;22.70;8.13;;;;;;;;;;2613317;54;20559;-78
2023/12/27 05:20:15;;;;;;;15.70;6.63;;;;;;;;;;2611302;54;20434;-78
2023/12/27 05:25:46;;;;;;;17.43;6.60;;;;;;;;;;2612913;54;20450;-81
2023/12/27 05:31:17;;;;;;;22.67;6.70;;;;;;;;;;2612715;54;20374;-80
2023/12/27 05:36:46;;;;;;;13.10;7.40;;;;;;;;;;2613119;54;20385;-81
2023/12/27 05:42:17;;;;;;;21.67;7.63;;;;;;;;;;2613858;54;20953;-80
2023/12/27 05:51:19;;;;;;;20.63;6.03;;;;;;;;;;2612593;54;20376;-78
2023/12/27 05:56:49;;;;;;;14.17;6.30;;;;;;;;;;2613483;39;20823;-81
2023/12/27 06:02:19;;;;;;;16.97;5.80;;;;;;;;;;2612230;54;20401;-79
2023/12/27 06:07:49;;;;;;;18.50;5.90;;;;;;;;;;2612125;54;20379;-78
2023/12/27 06:13:19;;;;;;;20.17;6.73;;;;;;;;;;2613228;54;20420;-81
2023/12/27 06:18:48;;;;;;;15.53;6.90;;;;;;;;;;2612725;54;20405;-78
2023/12/27 06:24:18;;;;;;;20.67;5.90;;;;;;;;;;2613370;31;20863;-80
2023/12/27 06:29:48;;;;;;;13.63;5.70;;;;;;;;;;2613374;39;20774;-81
2023/12/27 06:35:17;;;;;;;9.33;4.93;;;;;;;;;;2614010;54;20434;-75
2023/12/27 06:40:47;;;;;;;14.73;4.90;;;;;;;;;;2612983;54;20360;-75
2023/12/27 06:46:16;;;;;;;11.37;3.90;;;;;;;;;;2609165;54;20422;-74
2023/12/27 06:51:46;;;;;;;18.13;4.60;;;;;;;;;;2612188;54;20484;-73
2023/12/27 06:57:15;;;;;;;12.70;4.50;;;;;;;;;;2614149;54;20967;-74
2023/12/27 07:02:45;;;;;;;12.03;6.27;;;;;;;;;;2613609;54;20385;-72
2023/12/27 07:08:15;;;;;;;13.57;4.00;;;;;;;;;;2613356;54;20387;-73
2023/12/27 07:13:46;;;;;;;8.30;4.30;;;;;;;;;;2612399;54;20393;-72
2023/12/27 07:19:15;;;;;;;7.30;4.83;;;;;;;;;;2613209;54;20396;-72
2023/12/27 07:24:48;;;;;;;11.33;3.93;;;;;;;;;;2612958;54;20626;-71
2023/12/27 07:30:17;;;;;;;12.80;5.20;;;;;;;;;;2614106;54;20405;-75
2023/12/27 07:35:47;;;;;;;13.80;4.50;;;;;;;;;;2613202;54;20368;-78
2023/12/27 07:41:17;;;;;;;7.37;4.70;;;;;;;;;;2613089;54;20490;-78
2023/12/27 07:46:47;;;;;;;13.90;5.10;;;;;;;;;;2612655;54;20345;-73
2023/12/27 07:52:17;;;;;;;11.40;4.97;;;;;;;;;;2613014;39;20867;-74
2023/12/27 07:57:47;;;;;;;8.13;5.07;;;;;;;;;;2612852;54;20361;-75
2023/12/27 08:03:17;;;;;;;14.50;5.40;;;;;;;;;;2612608;54;20370;-75
2023/12/27 08:08:46;;;;;;;11.40;4.90;;;;;;;;;;2612421;54;20346;-73
2023/12/27 08:14:16;;;;;;;14.80;4.50;;;;;;;;;;2613476;39;20750;-71
2023/12/27 08:19:46;;;;;;;8.63;5.20;;;;;;;;;;2613359;54;20486;-73
2023/12/27 08:25:15;;;;;;;8.57;4.70;;;;;;;;;;2613027;54;20405;-74
2023/12/27 08:30:46;;;;;;;10.90;4.80;;;;;;;;;;2612845;39;20931;-75
2023/12/27 08:36:15;;;;;;;8.20;4.60;;;;;;;;;;2613483;54;21044;-74
2023/12/27 08:41:45;;;;;;;9.00;5.03;;;;;;;;;;2612587;54;20369;-74
2023/12/27 08:53:22;;;;;;;11.90;4.07;;;;;;;;;;2612716;54;20366;-73
2023/12/27 08:58:52;;;;;;;7.73;3.70;;;;;;;;;;2613222;31;20944;-74
2023/12/27 09:04:22;;;;;;;4.50;3.23;;;;;;;;;;2613106;54;20393;-74
2023/12/27 09:09:52;;;;;;;15.07;4.00;;;;;;;;;;2612601;54;20360;-75
2023/12/27 09:15:22;;;;;;;6.10;3.20;;;;;;;;;;2612688;54;20368;-73
2023/12/27 09:20:51;;;;;;;5.10;3.10;;;;;;;;;;2612247;54;21102;-73
2023/12/27 09:26:26;;;;;;;3.43;2.30;;;;;;;;;;2612708;54;20393;-72
2023/12/27 09:31:58;;;;;;;4.13;3.00;;;;;;;;;;2613360;54;20393;-74
2023/12/27 09:37:31;;;;;;;3.63;2.60;;;;;;;;;;2611659;54;20953;-74
2023/12/27 09:43:04;;;;;;;3.13;2.33;;;;;;;;;;2612224;54;20364;-73
2023/12/27 09:52:10;;;;;;;2.23;1.40;;;;;;;;;;2611964;54;20949;-72
2023/12/27 09:57:44;;;;;;;4.40;2.47;;;;;;;;;;2612420;54;20928;-73
2023/12/27 10:03:16;;;;;;;9.90;2.60;;;;;;;;;;2611168;54;20483;-74
2023/12/27 10:08:45;;;;;;;6.20;3.47;;;;;;;;;;2611855;54;20338;-76
2023/12/27 10:14:16;;;;;;;4.67;3.23;;;;;;;;;;2612853;54;20377;-72
2023/12/27 10:19:46;;;;;;;4.30;2.67;;;;;;;;;;2611794;54;20404;-73
2023/12/27 10:25:16;;;;;;;4.00;2.33;;;;;;;;;;2611688;54;20376;-74
2023/12/27 10:30:48;;;;;;;3.90;2.23;;;;;;;;;;2612265;54;20401;-73
2023/12/27 10:36:18;;;;;;;5.60;3.00;;;;;;;;;;2611259;54;20390;-73
2023/12/27 10:41:48;;;;;;;5.67;2.90;;;;;;;;;;2612233;54;20384;-73
2023/12/27 10:47:20;;;;;;;4.10;2.63;;;;;;;;;;2611816;54;20393;-76
2023/12/27 10:52:55;;;;;;;2.63;2.17;;;;;;;;;;2613131;54;20365;-73
2023/12/27 10:58:25;;;;;;;2.70;2.10;;;;;;;;;;2612714;54;20390;-73
2023/12/27 11:03:56;;;;;;;3.00;2.00;;;;;;;;;;2612711;54;20417;-73
2023/12/27 11:09:28;;;;;;;3.03;1.87;;;;;;;;;;2612531;54;20366;-73
2023/12/27 11:15:18;;;;;;;3.20;1.93;;;9.20;1.00;;;;;;2612418;54;20554;-75
2023/12/27 11:21:06;;;;;;;4.07;1.70;;;9.20;1.00;;;;;;2612957;54;20522;-73
2023/12/27 11:27:00;;;;;;;2.37;1.70;;;9.40;1.00;;;;;;2613879;39;20781;-73
2023/12/27 11:32:48;;;;;;;1.57;1.00;;;9.50;1.00;;;;;;2613835;54;20406;-73
2023/12/27 11:38:38;;;;;;;2.73;1.40;;;9.60;1.00;;;;;;2613510;54;20170;-73
2023/12/27 11:54:07;;;;;;;5.00;1.40;;;;;;;;;;2613625;54;20436;-76
2023/12/27 11:59:37;;;;;;;3.30;1.40;;;;;;;;;;2612477;54;20498;-73
2023/12/27 12:05:13;;;;;;;3.27;1.80;;;;;;;;;;2613125;54;20350;-74
2023/12/27 12:10:42;;;;;;;2.20;1.70;;;;;;;;;;2612383;46;20407;-73
2023/12/27 12:16:12;;;;;;;3.10;1.90;;;;;;;;;;2613422;54;20373;-74
2023/12/27 12:21:42;;;;;;;2.07;1.37;;;;;;;;;;2612839;54;20489;-73
2023/12/27 12:27:15;;;;;;;3.03;1.50;;;;;;;;;;2613600;54;20397;-73
2023/12/27 12:32:45;;;;;;;1.97;1.50;;;;;;;;;;2614120;39;20813;-73
2023/12/27 12:38:15;;;;;;;2.67;1.20;;;;;;;;;;2613059;54;20366;-79
2023/12/27 12:43:44;;;;;;;1.80;1.13;;;;;;;;;;2612601;54;20369;-79
2023/12/27 12:55:03;;;;;;;1.33;1.17;;;;;;;;;;2613322;54;20369;-75
2023/12/27 13:00:32;;;;;;;2.23;1.30;;;;;;;;;;2612659;54;20378;-75
2023/12/27 13:06:02;;;;;;;1.60;1.20;;;;;;;;;;2612893;54;20378;-76
2023/12/27 13:11:34;;;;;;;1.23;0.90;;;;;;;;;;2612850;54;20389;-76
2023/12/27 13:17:04;;;;;;;5.10;1.60;;;;;;;;;;2612633;54;20484;-78
2023/12/27 13:22:33;;;;;;;4.90;2.10;;;;;;;;;;2612157;54;20443;-77
2023/12/27 13:28:03;;;;;;;2.83;1.90;;;;;;;;;;2612809;54;20403;-77
2023/12/27 13:33:33;;;;;;;6.10;1.67;;;;;;;;;;2613076;54;20459;-76
2023/12/27 13:39:02;;;;;;;3.30;1.47;;;;;;;;;;2612851;54;20438;-75
2023/12/27 13:44:32;;;;;;;2.47;1.63;;;;;;;;;;2612966;39;20801;-75
2023/12/27 13:53:36;;;;;;;2.50;1.40;;;;;;;;;;2612444;54;20402;-77
2023/12/27 13:59:08;;;;;;;5.07;1.53;;;;;;;;;;2613611;54;20441;-77
2023/12/27 14:04:38;;;;;;;4.60;1.60;;;;;;;;;;2611919;54;20896;-77
2023/12/27 14:10:08;;;;;;;2.53;1.70;;;;;;;;;;2613842;54;20422;-78
2023/12/27 14:15:38;;;;;;;2.30;1.63;;;;;;;;;;2613072;54;20403;-78
2023/12/27 14:21:08;;;;;;;2.10;1.30;;;;;;;;;;2612956;39;20730;-79
2023/12/27 14:26:38;;;;;;;1.90;1.20;;;;;;;;;;2612807;54;20403;-79
2023/12/27 14:32:08;;;;;;;3.37;1.87;;;;;;;;;;2612547;54;20399;-78
2023/12/27 14:37:38;;;;;;;2.50;1.50;;;;;;;;;;2612171;54;20389;-78
2023/12/27 14:43:08;;;;;;;5.53;1.63;;;;;;;;;;2613235;47;20817;-77
2023/12/27 14:48:38;;;;;;;1.83;1.63;;;;;;;;;;2612337;54;20401;-77
2023/12/27 14:54:08;;;;;;;4.83;2.30;;;;;;;;;;2613344;54;20404;-77
2023/12/27 14:59:37;;;;;;;2.73;2.20;;;;;;;;;;2612312;54;20485;-77
2023/12/27 15:05:07;;;;;;;3.20;2.03;;;;;;;;;;2610891;54;20474;-78
2023/12/27 15:10:39;;;;;;;4.47;2.20;;;;;;;;;;2612785;54;20371;-78
2023/12/27 15:16:16;;;;;;;2.80;2.33;;;;;;;;;;2612430;54;20999;-72
2023/12/27 15:21:46;;;;;;;5.80;2.20;;;;;;;;;;2613010;54;20454;-72
2023/12/27 15:27:15;;;;;;;2.80;2.50;;;;;;;;;;2613019;54;20407;-77
2023/12/27 15:32:46;;;;;;;3.73;2.57;;;;;;;;;;2611359;54;20435;-77
2023/12/27 15:38:16;;;;;;;2.27;2.07;;;;;;;;;;2612294;54;20384;-78
2023/12/27 15:43:46;;;;;;;5.13;2.27;;;;;;;;;;2612367;54;20498;-78
2023/12/27 15:55:04;;;;;;;7.40;4.50;;;;;;;;;;2612226;54;20407;-78
2023/12/27 16:00:36;;;;;;;6.00;3.70;;;;;;;;;;2614079;54;20934;-78
2023/12/27 16:06:06;;;;;;;5.50;3.10;;;;;;;;;;2612263;54;21041;-79
2023/12/27 16:11:37;;;;;;;3.20;2.60;;;;;;;;;;2613165;54;20534;-76
2023/12/27 16:17:06;;;;;;;3.63;2.40;;;;;;;;;;2613033;54;20392;-79
2023/12/27 16:22:37;;;;;;;5.23;2.50;;;;;;;;;;2612886;54;20362;-76
2023/12/27 16:28:07;;;;;;;3.83;1.97;;;;;;;;;;2611683;54;20421;-78
2023/12/27 16:33:37;;;;;;;3.30;2.70;;;;;;;;;;2613033;39;20840;-78
2023/12/27 16:39:08;;;;;;;4.30;3.10;;;;;;;;;;2612850;54;20469;-73
2023/12/27 16:44:40;;;;;;;4.77;3.20;;;;;;;;;;2611778;54;20399;-74
2023/12/27 16:53:41;;;;;;;6.73;3.67;;;;;;;;;;2612463;54;20449;-74
2023/12/27 16:59:14;;;;;;;8.40;2.70;;;;;;;;;;2613761;54;20413;-74
2023/12/27 17:04:44;;;;;;;3.40;2.70;;;;;;;;;;2613963;54;20393;-73
2023/12/27 17:10:16;;;;;;;7.30;3.00;;;;;;;;;;2613232;54;20390;-74
2023/12/27 17:15:46;;;;;;;5.03;3.00;;;;;;;;;;2613452;54;20395;-74
2023/12/27 17:21:16;;;;;;;4.70;3.70;;;;;;;;;;2612546;54;20389;-75
2023/12/27 17:26:48;;;;;;;3.60;2.90;;;;;;;;;;2612215;54;20502;-73
2023/12/27 17:32:18;;;;;;;4.93;2.60;;;;;;;;;;2612495;54;20440;-73
2023/12/27 17:37:48;;;;;;;6.73;3.23;;;;;;;;;;2611752;39;20754;-74
2023/12/27 17:43:23;;;;;;;4.13;2.53;;;;;;;;;;2613017;39;20741;-73
2023/12/27 17:48:54;;;;;;;3.97;2.03;;;;;;;;;;2612962;39;20974;-73
2023/12/27 17:54:24;;;;;;;8.00;2.30;;;;;;;;;;2611584;54;20358;-76
2023/12/27 17:59:54;;;;;;;8.60;3.83;;;;;;;;;;2612551;54;20382;-75
2023/12/27 18:05:29;;;;;;;3.77;2.30;;;;;;;;;;2612917;54;20365;-74
2023/12/27 18:10:58;;;;;;;4.50;2.83;;;;;;;;;;2612880;54;20499;-74
2023/12/27 18:16:29;;;;;;;3.30;2.37;;;;;;;;;;2612441;54;20397;-73
2023/12/27 18:22:03;;;;;;;5.03;2.80;;;;;;;;;;2614959;54;20354;-73
2023/12/27 18:27:36;;;;;;;8.07;2.93;;;;;;;;;;2616202;54;20397;-75
2023/12/27 18:33:09;;;;;;;3.40;1.80;;;;;;;;;;2615080;54;20362;-73
2023/12/27 18:38:39;;;;;;;4.17;3.73;;;;;;;;;;2614592;54;20402;-73
2023/12/27 18:44:09;;;;;;;4.10;2.23;;;;;;;;;;2614593;54;20385;-73
2023/12/27 18:55:46;;;;;;;12.40;4.00;;;;;;;;;;2613210;54;20435;-77
2023/12/27 19:01:16;;;;;;;3.40;3.10;;;;;;;;;;2615594;54;21129;-78
2023/12/27 19:06:46;;;;;;;5.87;2.50;;;;;;;;;;2614594;54;20908;-74
2023/12/27 19:12:20;;;;;;;3.57;2.13;;;;;;;;;;2611889;39;21100;-74
2023/12/27 19:17:50;;;;;;;4.40;2.70;;;;;;;;;;2611835;54;20394;-73
2023/12/27 19:23:22;;;;;;;3.93;2.77;;;;;;;;;;2613301;54;21278;-76
2023/12/27 19:28:52;;;;;;;3.43;3.13;;;;;;;;;;2611873;54;20357;-74
2023/12/27 19:34:21;;;;;;;7.47;3.37;;;;;;;;;;2612696;54;20393;-74
2023/12/27 19:39:51;;;;;;;4.60;2.90;;;;;;;;;;2613362;54;20402;-76
2023/12/27 19:45:20;;;;;;;3.90;2.10;;;;;;;;;;2611306;54;21395;-74
2023/12/27 19:54:25;;;;;;;4.47;2.40;;;;;;;;;;2612606;54;20437;-75
2023/12/27 19:59:57;;;;;;;4.43;2.93;;;;;;;;;;2612424;54;20514;-74
2023/12/27 20:05:29;;;;;;;3.90;2.60;;;;;;;;;;2611808;54;20381;-75
2023/12/27 20:11:00;;;;;;;3.87;2.70;;;;;;;;;;2613639;39;20729;-74
2023/12/27 20:16:32;;;;;;;3.50;3.27;;;;;;;;;;2612942;54;20368;-79
2023/12/27 20:22:02;;;;;;;4.43;3.10;;;;;;;;;;2612881;54;20984;-76
2023/12/27 20:27:36;;;;;;;3.80;3.17;;;;;;;;;;2612252;54;20398;-79
2023/12/27 20:33:06;;;;;;;6.90;3.87;;;;;;;;;;2613425;54;20389;-79
2023/12/27 20:38:41;;;;;;;5.80;3.80;;;;;;;;;;2613277;54;20389;-79
2023/12/27 20:44:13;;;;;;;5.50;3.30;;;;;;;;;;2612693;54;20398;-80
2023/12/27 20:49:48;;;;;;;3.67;3.03;;;;;;;;;;2614063;54;20361;-76
2023/12/27 20:55:19;;;;;;;5.80;3.00;;;;;;;;;;2613133;54;20395;-79
2023/12/27 21:00:49;;;;;;;7.67;3.17;;;;;;;;;;2613487;54;20390;-79
2023/12/27 21:06:18;;;;;;;3.57;2.70;;;;;;;;;;2612598;54;20904;-79
2023/12/27 21:11:48;;;;;;;3.60;3.30;;;;;;;;;;2611625;54;20457;-79
2023/12/27 21:17:17;;;;;;;8.87;3.60;;;;;;;;;;2613459;54;20404;-79
2023/12/27 21:22:47;;;;;;;5.87;4.50;;;;;;;;;;2613938;54;20389;-80
2023/12/27 21:28:17;;;;;;;5.73;3.00;;;;;;;;;;2614207;54;20419;-76
2023/12/27 21:33:47;;;;;;;3.70;3.33;;;;;;;;;;2613245;54;20530;-78
2023/12/27 21:36:32;;;;;;;3.90;3.20;;;;;;;;;;2612061;47;21160;-76
2023/12/27 21:38:59;;;;;;;4.53;3.93;;;;;;;;;;2612647;54;20424;-78
2023/12/27 21:44:29;;;;;;;4.20;3.10;;;;;;;;;;2613216;54;20358;-76
2023/12/27 21:49:58;;;;;;;4.47;3.00;;;;;;;;;;2612915;54;20383;-77
2023/12/27 21:55:28;;;;;;;3.97;3.40;;;;;;;;;;2612621;54;20402;-79
2023/12/27 22:00:58;;;;;;;3.23;2.53;;;;;;;;;;2613167;54;20476;-79
2023/12/27 22:06:28;;;;;;;4.67;3.30;;;;;;;;;;2612568;39;20482;-78
2023/12/27 22:11:57;;;;;;;3.57;2.80;;;;;;;;;;2614038;39;20774;-77
2023/12/27 22:17:26;;;;;;;8.20;2.70;;;;;;;;;;2611728;54;20371;-75
2023/12/27 22:22:56;;;;;;;2.93;1.90;;;;;;;;;;2612659;54;20353;-76
2023/12/27 22:28:26;;;;;;;2.83;2.00;;;;;;;;;;2613808;39;20778;-76
2023/12/27 22:33:55;;;;;;;2.33;2.13;;;;;;;;;;2612097;54;20425;-77
2023/12/27 22:39:25;;;;;;;3.00;2.70;;;;;;;;;;2613620;54;20495;-77
2023/12/27 22:44:55;;;;;;;2.90;2.30;;;;;;;;;;2613754;39;20775;-78
2023/12/27 22:56:32;;;;;;;3.80;2.60;;;;;;;;;;2612590;54;20518;-77
2023/12/27 23:02:02;;;;;;;10.50;1.80;;;;;;;;;;2612326;54;20472;-76
2023/12/27 23:07:32;;;;;;;10.40;2.47;;;;;;;;;;2612937;54;20363;-76
2023/12/27 23:13:02;;;;;;;3.00;2.27;;;;;;;;;;2613648;54;20394;-78
2023/12/27 23:18:32;;;;;;;4.30;2.00;;;;;;;;;;2614279;54;20424;-77
2023/12/27 23:24:02;;;;;;;5.30;3.37;;;;;;;;;;2609869;54;21291;-75
2023/12/27 23:29:32;;;;;;;3.50;2.03;;;;;;;;;;2614540;54;20387;-74
2023/12/27 23:35:03;;;;;;;3.10;2.47;;;;;;;;;;2612319;54;20384;-73
2023/12/27 23:40:32;;;;;;;3.30;2.60;;;;;;;;;;2611739;46;20470;-77
2023/12/27 23:46:03;;;;;;;3.90;2.17;;;;;;;;;;2612785;54;20417;-77
2023/12/27 23:57:40;;;;;;;6.80;2.77;;;;;;;;;;2613328;54;20360;-77
